Flight Track Log - Related Links

Times and Time Zones

All times are in EDT time to prevent confusion due to time zone crossing. See the C-GONN flight status page for this flight to view local times or setup timezone preferences in your user account.


Time Position Orientation Groundspeed Altitude Reporting Facility
EDT Latitude Longitude Course Direction KTS MPH feet Rate Location/Type
Wed 06:39:09 PM 53.2500 -131.8667 31° Northeast 100 115 1,000  Level Vancouver Center
Wed 06:40:09 PM 53.2667 -131.8500 31° Northeast 120 138 2,400 1,200 Climbing Vancouver Center
Wed 06:41:09 PM 53.2500 -131.7833 113° Southeast 150 173 3,400 950 Climbing Vancouver Center
Wed 06:42:09 PM 53.2167 -131.7000 124° Southeast 180 207 4,300 1,000 Climbing Vancouver Center
Wed 06:43:09 PM 53.2000 -131.6333 113° Southeast 190 219 5,400 1,150 Climbing Vancouver Center
Wed 06:44:09 PM 53.1667 -131.5500 124° Southeast 200 230 6,600 1,250 Climbing Vancouver Center
Wed 06:45:09 PM 53.1333 -131.4667 124° Southeast 200 230 7,900 1,250 Climbing Vancouver Center
Wed 06:46:09 PM 53.1000 -131.4000 130° Southeast 200 230 9,100 1,250 Climbing Vancouver Center
Wed 06:47:09 PM 53.0833 -131.3167 108° East 200 230 10,400 1,150 Climbing Vancouver Center
Wed 06:48:09 PM 53.0500 -131.2500 130° Southeast 200 230 11,400 1,000 Climbing Vancouver Center
Wed 06:49:09 PM 53.0167 -131.1667 124° Southeast 210 242 12,400 950 Climbing Vancouver Center
Wed 06:50:09 PM 53.0000 -131.0667 105° East 210 242 13,300 950 Climbing Vancouver Center
Wed 06:51:09 PM 52.9500 -130.9833 135° Southeast 220 253 14,300 1,000 Climbing Vancouver Center
Wed 06:52:09 PM 52.9167 -130.9000 124° Southeast 230 265 15,300 1,050 Climbing Vancouver Center
Wed 06:53:09 PM 52.9000 -130.8000 105° East 230 265 16,400 900 Climbing Vancouver Center
Wed 06:54:09 PM 52.8500 -130.7167 135° Southeast 230 265 17,100 700 Climbing Vancouver Center
Wed 06:55:09 PM 52.8167 -130.6333 123° Southeast 240 276 17,800 650 Climbing Vancouver Center
Wed 06:56:09 PM 52.7833 -130.5167 115° Southeast 240 276 18,400 700 Climbing Vancouver Center
Wed 06:57:09 PM 52.7500 -130.4167 119° Southeast 240 276 19,200 800 Climbing Vancouver Center
Wed 06:58:09 PM 52.7000 -130.3333 135° Southeast 240 276 20,000 700 Climbing Vancouver Center
Wed 06:59:09 PM 52.6667 -130.2500 123° Southeast 250 288 20,600 650 Climbing Vancouver Center
Wed 07:00:09 PM 52.6333 -130.1333 115° Southeast 250 288 21,300 750 Climbing Vancouver Center
Wed 07:01:09 PM 52.6000 -130.0333 119° Southeast 250 288 22,100 700 Climbing Vancouver Center
Wed 07:02:09 PM 52.5500 -129.9500 135° Southeast 240 276 22,700 600 Climbing Vancouver Center
Wed 07:03:09 PM 52.5333 -129.8333 103° East 250 288 23,300 600 Climbing Vancouver Center
Wed 07:04:09 PM 52.4833 -129.7500 135° Southeast 250 288 23,900 600 Climbing Vancouver Center
Wed 07:05:09 PM 52.4500 -129.6667 123° Southeast 250 288 24,500 550 Climbing Vancouver Center
Wed 07:06:09 PM 52.4000 -129.5833 135° Southeast 250 288 25,000 250 Climbing Vancouver Center
Wed 07:07:09 PM 52.3667 -129.4667 115° Southeast 260 299 25,000  Level Vancouver Center
Wed 07:08:09 PM 52.3167 -129.3500 125° Southeast 280 322 25,000  Level Vancouver Center
Wed 07:09:09 PM 52.2667 -129.2333 125° Southeast 290 334 25,000  Level Vancouver Center
Wed 07:10:09 PM 52.2333 -129.1500 123° Southeast 280 322 25,000  Level Vancouver Center
Wed 07:11:09 PM 52.2000 -129.0333 115° Southeast 280 322 25,000  Level Vancouver Center
Wed 07:12:09 PM 52.1500 -128.9167 125° Southeast 280 322 25,000  Level Vancouver Center
Wed 07:13:09 PM 52.1000 -128.8333 134° Southeast 280 322 25,000  Level Vancouver Center
Wed 07:14:09 PM 52.0667 -128.7167 115° Southeast 290 334 25,000  Level Vancouver Center
Wed 07:15:09 PM 52.0167 -128.6000 125° Southeast 280 322 25,000  Level Vancouver Center
Wed 07:16:09 PM 51.9667 -128.4833 125° Southeast 290 334 25,000  Level Vancouver Center
Wed 07:17:09 PM 51.9167 -128.4000 134° Southeast 290 334 25,000  Level Vancouver Center
Wed 07:18:09 PM 51.8833 -128.2833 115° Southeast 290 334 25,000  Level Vancouver Center
Wed 07:19:09 PM 51.8333 -128.1833 129° Southeast 290 334 25,000  Level Vancouver Center
Wed 07:20:09 PM 51.7833 -128.0667 125° Southeast 290 334 25,000  Level Vancouver Center
Wed 07:21:09 PM 51.7500 -127.9500 115° Southeast 290 334 25,000  Level Vancouver Center
Wed 07:22:09 PM 51.7000 -127.8667 134° Southeast 290 334 25,000  Level Vancouver Center
Wed 07:23:09 PM 51.6667 -127.7500 115° Southeast 280 322 25,000  Level Vancouver Center
Wed 07:24:09 PM 51.6167 -127.6500 129° Southeast 290 334 25,000  Level Vancouver Center
Wed 07:25:09 PM 51.5667 -127.5333 125° Southeast 290 334 25,000  Level Vancouver Center
Wed 07:26:09 PM 51.5167 -127.4167 125° Southeast 290 334 25,000  Level Vancouver Center
Wed 07:27:09 PM 51.4667 -127.3333 134° Southeast 290 334 25,000  Level Vancouver Center
Wed 07:28:09 PM 51.4333 -127.2333 118° Southeast 290 334 25,000  Level Vancouver Center
Wed 07:29:09 PM 51.3833 -127.1167 124° Southeast 290 334 25,000  Level Vancouver Center
Wed 07:30:09 PM 51.3333 -127.0000 124° Southeast 290 334 25,000  Level Vancouver Center
Wed 07:31:09 PM 51.2833 -126.9167 134° Southeast 290 334 25,000  Level Vancouver Center
Wed 07:32:09 PM 51.2333 -126.8167 129° Southeast 290 334 25,000  Level Vancouver Center
Wed 07:33:09 PM 51.2000 -126.7000 114° Southeast 290 334 25,000  Level Vancouver Center
Wed 07:34:09 PM 51.1667 -126.6000 118° Southeast 290 334 25,000  Level Vancouver Center
Wed 07:35:09 PM 51.1167 -126.4833 124° Southeast 290 334 25,000  Level Vancouver Center
Wed 07:36:09 PM 51.0667 -126.4000 134° Southeast 290 334 25,000  Level Vancouver Center
Wed 07:37:09 PM 51.0167 -126.3000 128° Southeast 290 334 25,000  Level Vancouver Center
Wed 07:38:09 PM 50.9667 -126.1833 124° Southeast 290 334 25,000  Level Vancouver Center
Wed 07:39:09 PM 50.9167 -126.0833 128° Southeast 290 334 25,000  Level Vancouver Center
Wed 07:40:09 PM 50.8667 -125.9667 124° Southeast 290 334 25,000  Level Vancouver Center
Wed 07:41:09 PM 50.8167 -125.8667 128° Southeast 290 334 25,000  Level Vancouver Center
Wed 07:42:09 PM 50.7667 -125.7833 133° Southeast 290 334 25,000  Level Vancouver Center
Wed 07:43:09 PM 50.7333 -125.6667 114° Southeast 290 334 25,000  Level Vancouver Center
Wed 07:44:09 PM 50.7000 -125.5667 118° Southeast 280 322 25,000  Level Vancouver Center
Wed 07:45:09 PM 50.6500 -125.4833 133° Southeast 280 322 25,000  Level Vancouver Center
Wed 07:46:09 PM 50.6000 -125.3833 128° Southeast 280 322 25,000  Level Vancouver Center
Wed 07:47:09 PM 50.5500 -125.2667 124° Southeast 280 322 25,000  Level Vancouver Center
Wed 07:48:09 PM 50.5000 -125.1667 128° Southeast 280 322 25,000  Level Vancouver Center
Wed 07:49:09 PM 50.4500 -125.0833 133° Southeast 290 334 25,000  Level Vancouver Center
Wed 07:50:09 PM 50.4000 -124.9833 128° Southeast 290 334 25,000  Level Vancouver Center
Wed 07:51:09 PM 50.3500 -124.8667 124° Southeast 280 322 25,000  Level Vancouver Center
Wed 07:52:09 PM 50.3000 -124.7667 128° Southeast 290 334 25,000 -250 Level Vancouver Center
Wed 07:53:09 PM 50.2500 -124.6667 128° Southeast 290 334 24,500 -950 Descending Vancouver Center
Wed 07:54:09 PM 50.2000 -124.5500 124° Southeast 320 368 23,100 -1,400 Descending Vancouver Center
Wed 07:55:09 PM 50.1500 -124.4500 128° Southeast 340 391 21,700 -1,450 Descending Vancouver Center
Wed 07:56:09 PM 50.0833 -124.3167 128° Southeast 330 380 20,200 -1,400 Descending Vancouver Center
Wed 07:57:09 PM 50.0333 -124.2167 128° Southeast 340 391 18,900 -1,300 Descending Vancouver Center
Wed 07:58:09 PM 49.9667 -124.0833 128° Southeast 330 380 17,600 -1,200 Descending Vancouver Center
Wed 07:59:09 PM 49.9167 -123.9833 128° Southeast 320 368 16,500 -1,200 Descending Vancouver Center
Wed 08:00:09 PM 49.8667 -123.8833 128° Southeast 310 357 15,200 -1,350 Descending Vancouver Center
Wed 08:01:09 PM 49.8167 -123.7667 124° Southeast 320 368 13,800 -1,300 Descending Vancouver Center
Wed 08:02:09 PM 49.7500 -123.7000 147° Southeast 310 357 12,600 -1,150 Descending Vancouver Center
Wed 08:03:09 PM 49.6833 -123.6167 141° Southeast 290 334 11,500 -1,050 Descending Vancouver Center
Wed 08:04:09 PM 49.6167 -123.5667 154° Southeast 280 322 10,500 -650 Descending Vancouver Center
Wed 08:05:09 PM 49.5500 -123.4833 141° Southeast 270 311 10,200 -150 Descending Vancouver Center
Wed 08:06:09 PM 49.5000 -123.4333 147° Southeast 260 299 10,200 -300 Level Vancouver Center
Wed 08:07:09 PM 49.4500 -123.3833 147° Southeast 250 288 9,600 -650 Descending Vancouver Center
Wed 08:08:09 PM 49.3833 -123.4167 198° South 220 253 8,900 -950 Descending Vancouver Center
Wed 08:09:09 PM 49.3333 -123.4667 213° Southwest 220 253 7,700 -1,400 Descending Vancouver Center
Wed 08:10:09 PM 49.2833 -123.5167 213° Southwest 210 242 6,100 -1,600 Descending Vancouver Center
Wed 08:11:09 PM 49.2333 -123.5167 180° South 210 242 4,500 -1,500 Descending Vancouver Center
Wed 08:12:09 PM 49.2167 -123.4333 107° East 210 242 3,100 -1,200 Descending Vancouver Center
Wed 08:13:09 PM 49.2000 -123.3667 111° Southeast 190 219 2,100 -1,000 Descending Vancouver Center

Login

Don't have an account? Register now (free) for customized features, flight alerts, and more!